Time;durP1;ratioP1;P1;durP2;ratioP2;P2;SDS_P1;SDS_P2;PMS_P1;PMS_P2;Temp;Humidity;BMP_temperature;BMP_pressure;BME280_temperature;BME280_humidity;BME280_pressure;Samples;Min_cycle;Max_cycle;Signal;HPM_P1;HPM_P2
2021/11/04 00:03:15;;;;;;;;;;;7.20;99.90;;;;;;8352028;28;20001;-73
2021/11/04 00:07:18;;;;;;;;;;;7.20;99.90;;;;;;8353683;28;19933;-71
2021/11/04 00:11:19;;;;;;;;;;;7.10;99.90;;;;;;8347063;28;19924;-72
2021/11/04 00:15:22;;;;;;;;;;;7.00;99.90;;;;;;8337057;28;20311;-72
2021/11/04 00:19:24;;;;;;;;;;;7.00;99.90;;;;;;8336717;28;19936;-71
2021/11/04 00:23:26;;;;;;;;;;;7.00;99.90;;;;;;8350033;28;19936;-71
2021/11/04 00:27:28;;;;;;;;;;;7.00;99.90;;;;;;8349067;28;20376;-72
2021/11/04 00:31:29;;;;;;;;;;;7.00;99.90;;;;;;8346208;28;20023;-71
2021/11/04 00:35:31;;;;;;;;;;;7.00;99.90;;;;;;8349188;28;20321;-71
2021/11/04 00:39:34;;;;;;;;;;;7.00;99.90;;;;;;8363346;28;19925;-72
2021/11/04 00:43:35;;;;;;;;;;;7.00;99.90;;;;;;8365177;28;19921;-72
2021/11/04 00:47:37;;;;;;;;;;;6.90;99.90;;;;;;8363115;28;19971;-72
2021/11/04 00:51:39;;;;;;;;;;;6.90;99.90;;;;;;8340525;28;20067;-72
2021/11/04 00:55:40;;;;;;;;;;;6.90;99.90;;;;;;8352185;28;19928;-71
2021/11/04 00:59:42;;;;;;;;;;;6.90;99.90;;;;;;8366242;28;19929;-72
2021/11/04 01:03:44;;;;;;;;;;;6.90;99.90;;;;;;8343164;28;19928;-72
2021/11/04 01:07:45;;;;;;;;;;;7.00;99.90;;;;;;8356748;28;19925;-72
2021/11/04 01:11:47;;;;;;;;;;;6.90;99.90;;;;;;8354234;28;19921;-72
2021/11/04 01:15:49;;;;;;;;;;;6.90;99.90;;;;;;8355736;28;19932;-72
2021/11/04 01:19:51;;;;;;;;;;;7.00;99.90;;;;;;8356435;28;19929;-72
2021/11/04 01:23:52;;;;;;;;;;;6.90;99.90;;;;;;8353386;28;19927;-71
2021/11/04 01:27:54;;;;;;;;;;;6.90;99.90;;;;;;8359141;28;19924;-73
2021/11/04 01:31:56;;;;;;;;;;;6.90;99.90;;;;;;8352447;28;20064;-71
2021/11/04 01:35:57;;;;;;;;;;;6.90;99.90;;;;;;8363253;28;19921;-72
2021/11/04 01:39:59;;;;;;;;;;;6.80;99.90;;;;;;8357987;28;19935;-73
2021/11/04 01:44:01;;;;;;;;;;;6.80;99.90;;;;;;8369193;28;19921;-72
2021/11/04 01:48:03;;;;;;;;;;;6.90;99.90;;;;;;8351939;28;20288;-71
2021/11/04 01:52:05;;;;;;;;;;;6.90;99.90;;;;;;8348290;28;19924;-72
2021/11/04 01:56:07;;;;;;;;;;;6.90;99.90;;;;;;8350550;28;19928;-73
2021/11/04 02:00:09;;;;;;;;;;;7.00;99.90;;;;;;8346371;28;20383;-72
2021/11/04 02:04:21;;;;;;;;;;;7.00;99.90;;;;;;8350346;28;19932;-71
2021/11/04 02:08:29;;;;;;;;;;;7.00;99.90;;;;;;8356908;28;19932;-72
2021/11/04 02:12:45;;;;;;;;;;;7.00;99.90;;;;;;8358118;28;19983;-72
2021/11/04 02:16:48;;;;;;;;;;;7.00;99.90;;;;;;8354843;28;19948;-71
2021/11/04 02:20:49;;;;;;;;;;;7.00;99.90;;;;;;8346083;28;19935;-71
2021/11/04 02:25:10;;;;;;;;;;;7.00;99.90;;;;;;8357566;28;19974;-72
2021/11/04 02:29:12;;;;;;;;;;;7.00;99.90;;;;;;8365071;28;20380;-72
2021/11/04 02:33:15;;;;;;;;;;;7.10;99.90;;;;;;8361439;28;19927;-72
2021/11/04 02:37:17;;;;;;;;;;;7.00;99.90;;;;;;8357545;28;19935;-71
2021/11/04 02:41:19;;;;;;;;;;;7.00;99.90;;;;;;8352288;28;19932;-72
2021/11/04 02:45:22;;;;;;;;;;;7.00;99.90;;;;;;8352889;28;19928;-72
2021/11/04 02:49:24;;;;;;;;;;;7.00;99.90;;;;;;8353411;28;19929;-72
2021/11/04 02:53:28;;;;;;;;;;;7.00;99.90;;;;;;8334871;28;19921;-72
2021/11/04 02:57:30;;;;;;;;;;;7.00;99.90;;;;;;8373813;28;20396;-72
2021/11/04 03:01:32;;;;;;;;;;;7.00;99.90;;;;;;8350964;28;19928;-72
2021/11/04 03:05:33;;;;;;;;;;;7.00;99.90;;;;;;8350741;28;20011;-72
2021/11/04 03:09:35;;;;;;;;;;;7.00;99.90;;;;;;8353690;28;20268;-73
2021/11/04 03:13:37;;;;;;;;;;;6.90;99.90;;;;;;8375807;28;19948;-72
2021/11/04 03:17:39;;;;;;;;;;;6.90;99.90;;;;;;8347116;28;19921;-72
2021/11/04 03:21:44;;;;;;;;;;;6.90;99.90;;;;;;8340661;28;19928;-72
2021/11/04 03:25:47;;;;;;;;;;;6.90;99.90;;;;;;8344151;28;19920;-72
2021/11/04 03:29:48;;;;;;;;;;;6.80;99.90;;;;;;8369631;28;19936;-71
2021/11/04 03:33:51;;;;;;;;;;;6.80;99.90;;;;;;8360681;28;19928;-72
2021/11/04 03:37:53;;;;;;;;;;;6.70;99.90;;;;;;8360154;28;19928;-72
2021/11/04 03:41:56;;;;;;;;;;;6.70;99.90;;;;;;8352458;28;20051;-72
2021/11/04 03:45:58;;;;;;;;;;;6.70;99.90;;;;;;8345095;28;19986;-72
2021/11/04 03:50:00;;;;;;;;;;;6.60;99.90;;;;;;8344140;28;19924;-73
2021/11/04 03:54:02;;;;;;;;;;;6.50;99.90;;;;;;8346872;28;19928;-72
2021/11/04 03:58:03;;;;;;;;;;;6.50;99.90;;;;;;8379747;28;19928;-72
2021/11/04 04:02:09;;;;;;;;;;;6.50;99.90;;;;;;8349404;28;19921;-72
2021/11/04 04:06:10;;;;;;;;;;;6.50;99.90;;;;;;8352793;28;20106;-72
2021/11/04 04:10:13;;;;;;;;;;;6.50;99.90;;;;;;8362218;28;20309;-71
2021/11/04 04:14:15;;;;;;;;;;;6.50;99.90;;;;;;8348917;28;19921;-72
2021/11/04 04:18:16;;;;;;;;;;;6.50;99.90;;;;;;8357432;28;20234;-72
2021/11/04 04:22:18;;;;;;;;;;;6.50;99.90;;;;;;8342692;28;19924;-71
2021/11/04 04:26:22;;;;;;;;;;;6.50;99.90;;;;;;8347493;28;19951;-72
2021/11/04 04:30:23;;;;;;;;;;;6.40;99.90;;;;;;8354828;28;19924;-71
2021/11/04 04:34:26;;;;;;;;;;;6.40;99.90;;;;;;8345227;28;19928;-72
2021/11/04 04:38:27;;;;;;;;;;;6.40;99.90;;;;;;8346748;28;19924;-71
2021/11/04 04:42:29;;;;;;;;;;;6.40;99.90;;;;;;8344154;28;19944;-72
2021/11/04 04:46:30;;;;;;;;;;;6.40;99.90;;;;;;8352455;28;19955;-72
2021/11/04 04:50:32;;;;;;;;;;;6.30;99.90;;;;;;8350214;28;19928;-71
2021/11/04 04:54:34;;;;;;;;;;;6.30;99.90;;;;;;8339475;28;19932;-71
2021/11/04 04:58:35;;;;;;;;;;;6.30;99.90;;;;;;8337713;28;19940;-72
2021/11/04 05:02:41;;;;;;;;;;;6.20;99.90;;;;;;8339365;28;19940;-72
2021/11/04 05:06:43;;;;;;;;;;;6.20;99.90;;;;;;8333876;28;19926;-71
2021/11/04 05:10:45;;;;;;;;;;;6.10;99.90;;;;;;8349809;28;19921;-71
2021/11/04 05:14:46;;;;;;;;;;;6.00;99.90;;;;;;8343988;28;19920;-72
2021/11/04 05:18:48;;;;;;;;;;;6.00;99.90;;;;;;8349337;28;20238;-71
2021/11/04 05:22:50;;;;;;;;;;;5.90;99.90;;;;;;8341127;28;19921;-72
2021/11/04 05:26:51;;;;;;;;;;;5.90;99.90;;;;;;8363453;28;19921;-72
2021/11/04 05:30:53;;;;;;;;;;;5.80;99.90;;;;;;8355077;28;19929;-71
2021/11/04 05:34:55;;;;;;;;;;;5.80;99.90;;;;;;8392611;28;19925;-71
2021/11/04 05:38:56;;;;;;;;;;;5.70;99.90;;;;;;8354001;28;20300;-72
2021/11/04 05:42:58;;;;;;;;;;;5.70;99.90;;;;;;8351756;28;19925;-72
2021/11/04 05:47:00;;;;;;;;;;;5.60;99.90;;;;;;8352768;28;19921;-71
2021/11/04 05:51:01;;;;;;;;;;;5.60;99.90;;;;;;8355252;28;20379;-71
2021/11/04 05:55:04;;;;;;;;;;;5.60;99.90;;;;;;8362047;28;19924;-71
2021/11/04 05:59:06;;;;;;;;;;;5.50;99.90;;;;;;8363290;28;19927;-71
2021/11/04 06:03:08;;;;;;;;;;;5.40;99.90;;;;;;8349929;28;20427;-71
2021/11/04 06:07:09;;;;;;;;;;;5.40;99.90;;;;;;8359923;28;19925;-72
2021/11/04 06:11:11;;;;;;;;;;;5.40;99.90;;;;;;8364556;28;19963;-71
2021/11/04 06:15:13;;;;;;;;;;;5.40;99.90;;;;;;8382188;28;19943;-72
2021/11/04 06:19:15;;;;;;;;;;;5.40;99.90;;;;;;8359124;28;19924;-72
2021/11/04 06:23:16;;;;;;;;;;;5.40;99.90;;;;;;8365793;28;19928;-72
2021/11/04 06:27:18;;;;;;;;;;;5.40;99.90;;;;;;8362449;28;20395;-71
2021/11/04 06:31:19;;;;;;;;;;;5.40;99.90;;;;;;8366163;28;19994;-71
2021/11/04 06:35:21;;;;;;;;;;;5.40;99.90;;;;;;8365990;28;19974;-71
2021/11/04 06:39:23;;;;;;;;;;;5.40;99.90;;;;;;8367042;28;20446;-71
2021/11/04 06:43:25;;;;;;;;;;;5.40;99.90;;;;;;8375761;28;19920;-71
2021/11/04 06:47:31;;;;;;;;;;;5.40;99.90;;;;;;8369188;28;19920;-72
2021/11/04 06:51:35;;;;;;;;;;;5.40;99.90;;;;;;8362266;28;19920;-72
2021/11/04 06:55:40;;;;;;;;;;;5.30;99.90;;;;;;8368502;28;20020;-71
2021/11/04 06:59:42;;;;;;;;;;;5.20;99.90;;;;;;8362660;28;20311;-72
2021/11/04 07:03:54;;;;;;;;;;;5.20;99.90;;;;;;8380874;28;19928;-72
2021/11/04 07:07:59;;;;;;;;;;;5.20;99.90;;;;;;8365151;28;20422;-72
2021/11/04 07:12:01;;;;;;;;;;;5.20;99.90;;;;;;8361846;28;19921;-72
2021/11/04 07:16:03;;;;;;;;;;;5.20;99.90;;;;;;8361203;28;19920;-71
2021/11/04 07:20:05;;;;;;;;;;;5.30;99.90;;;;;;8357567;28;19929;-71
2021/11/04 07:24:07;;;;;;;;;;;5.40;99.90;;;;;;8358057;28;19925;-72
2021/11/04 07:28:14;;;;;;;;;;;5.50;99.90;;;;;;8357139;28;19996;-71
2021/11/04 07:32:16;;;;;;;;;;;5.60;99.90;;;;;;8354045;28;19927;-71
2021/11/04 07:36:19;;;;;;;;;;;5.70;99.90;;;;;;8359449;28;20389;-72
2021/11/04 07:40:21;;;;;;;;;;;5.80;99.90;;;;;;8359107;28;19967;-71
2021/11/04 07:44:23;;;;;;;;;;;5.90;99.90;;;;;;8359531;28;19925;-71
2021/11/04 07:48:26;;;;;;;;;;;6.00;99.90;;;;;;8357988;28;20380;-71
2021/11/04 07:52:27;;;;;;;;;;;6.10;99.90;;;;;;8376753;28;19920;-71
2021/11/04 07:56:29;;;;;;;;;;;6.10;99.90;;;;;;8405704;28;20522;-71
2021/11/04 08:00:31;;;;;;;;;;;6.20;99.90;;;;;;8356837;28;20379;-72
2021/11/04 08:04:32;;;;;;;;;;;6.20;99.90;;;;;;8358468;28;20038;-71
2021/11/04 08:08:35;;;;;;;;;;;6.20;99.90;;;;;;8357853;28;19924;-71
2021/11/04 08:12:36;;;;;;;;;;;6.30;99.90;;;;;;8362240;28;19921;-72
2021/11/04 08:16:38;;;;;;;;;;;6.40;99.90;;;;;;8359189;28;20360;-72
2021/11/04 08:20:40;;;;;;;;;;;6.40;99.90;;;;;;8355240;28;19921;-71
2021/11/04 08:24:42;;;;;;;;;;;6.50;99.90;;;;;;8356692;28;20296;-71
2021/11/04 08:28:43;;;;;;;;;;;6.60;99.90;;;;;;8361050;28;19927;-71
2021/11/04 08:32:45;;;;;;;;;;;6.80;99.90;;;;;;8356429;28;19921;-71
2021/11/04 08:36:46;;;;;;;;;;;6.90;99.90;;;;;;8368448;28;19921;-71
2021/11/04 08:40:48;;;;;;;;;;;6.90;99.90;;;;;;8359635;28;19932;-71
2021/11/04 08:44:50;;;;;;;;;;;7.00;99.90;;;;;;8363444;28;19974;-71
2021/11/04 08:48:51;;;;;;;;;;;7.10;99.90;;;;;;8368123;28;19940;-72
2021/11/04 08:52:53;;;;;;;;;;;7.20;99.90;;;;;;8347990;28;19928;-71
2021/11/04 08:56:55;;;;;;;;;;;7.40;99.90;;;;;;8358081;28;19971;-71
2021/11/04 09:00:57;;;;;;;;;;;7.50;99.90;;;;;;8353403;28;19966;-71
2021/11/04 09:05:06;;;;;;;;;;;7.60;99.90;;;;;;8355076;28;20287;-71
2021/11/04 09:09:08;;;;;;;;;;;7.90;99.90;;;;;;8344917;28;19927;-72
2021/11/04 09:13:10;;;;;;;;;;;8.00;99.90;;;;;;8352043;28;19921;-71
2021/11/04 09:17:12;;;;;;;;;;;8.00;99.90;;;;;;8356066;28;20304;-71
2021/11/04 09:21:14;;;;;;;;;;;8.00;99.90;;;;;;8343149;28;20384;-71
2021/11/04 09:25:17;;;;;;;;;;;8.10;99.90;;;;;;8346323;28;20288;-72
2021/11/04 09:29:18;;;;;;;;;;;8.10;99.90;;;;;;8352292;28;19932;-72
2021/11/04 09:33:20;;;;;;;;;;;8.20;99.90;;;;;;8362943;28;19928;-72
2021/11/04 09:37:22;;;;;;;;;;;8.30;99.90;;;;;;8379036;28;19920;-71
2021/11/04 09:41:23;;;;;;;;;;;8.30;99.90;;;;;;8348782;28;19932;-72
2021/11/04 09:45:26;;;;;;;;;;;8.30;99.90;;;;;;8357379;28;20406;-71
2021/11/04 09:49:28;;;;;;;;;;;8.40;99.90;;;;;;8365975;28;19930;-71
2021/11/04 09:53:30;;;;;;;;;;;8.60;99.90;;;;;;8362356;28;19921;-71
2021/11/04 09:57:32;;;;;;;;;;;8.80;99.90;;;;;;8367356;28;19920;-71
2021/11/04 10:01:35;;;;;;;;;;;9.00;99.90;;;;;;8359797;28;20312;-71
2021/11/04 10:05:43;;;;;;;;;;;9.10;99.90;;;;;;8358724;28;20020;-71
2021/11/04 10:09:59;;;;;;;;;;;9.20;99.90;;;;;;8353068;28;19920;-72
2021/11/04 10:14:05;;;;;;;;;;;9.40;99.90;;;;;;8356284;28;19928;-72
2021/11/04 10:18:25;;;;;;;;;;;9.60;99.90;;;;;;8398052;28;19936;-71
2021/11/04 10:22:27;;;;;;;;;;;9.70;99.90;;;;;;8351054;28;19921;-71
2021/11/04 10:26:31;;;;;;;;;;;9.80;99.90;;;;;;8355303;28;20182;-71
2021/11/04 10:30:34;;;;;;;;;;;9.80;99.90;;;;;;8374687;28;19920;-70
2021/11/04 10:34:36;;;;;;;;;;;9.70;99.90;;;;;;8361011;28;19921;-71
2021/11/04 10:38:43;;;;;;;;;;;9.70;99.90;;;;;;8354350;28;19928;-71
2021/11/04 10:42:48;;;;;;;;;;;9.70;99.90;;;;;;8358853;28;19921;-72
2021/11/04 10:46:55;;;;;;;;;;;9.80;99.90;;;;;;8365093;28;19921;-71
2021/11/04 10:50:57;;;;;;;;;;;9.80;99.90;;;;;;8359652;28;19928;-71
2021/11/04 10:55:07;;;;;;;;;;;9.80;99.90;;;;;;8359118;28;19932;-71
2021/11/04 10:59:10;;;;;;;;;;;9.80;99.90;;;;;;8366685;28;19925;-71
2021/11/04 11:03:12;;;;;;;;;;;9.80;99.90;;;;;;8359471;28;20316;-71
2021/11/04 11:07:14;;;;;;;;;;;9.80;99.90;;;;;;8360968;28;20172;-72
2021/11/04 11:11:16;;;;;;;;;;;9.80;99.90;;;;;;8356281;28;19920;-72
2021/11/04 11:15:18;;;;;;;;;;;9.90;99.90;;;;;;8353637;28;19928;-72
2021/11/04 11:19:20;;;;;;;;;;;9.90;99.90;;;;;;8353614;28;19931;-71
2021/11/04 11:23:23;;;;;;;;;;;10.00;99.90;;;;;;8352389;28;19921;-71
2021/11/04 11:27:25;;;;;;;;;;;10.00;99.90;;;;;;8354694;28;19929;-71
2021/11/04 11:31:27;;;;;;;;;;;10.00;99.90;;;;;;8358610;28;19921;-71
2021/11/04 11:35:29;;;;;;;;;;;10.00;99.90;;;;;;8354661;28;19921;-71
2021/11/04 11:39:39;;;;;;;;;;;10.00;99.90;;;;;;8365038;28;19921;-71
2021/11/04 11:43:49;;;;;;;;;;;10.00;99.90;;;;;;8371281;28;19973;-72
2021/11/04 11:47:51;;;;;;;;;;;10.00;99.90;;;;;;8360449;28;20001;-71
2021/11/04 11:51:57;;;;;;;;;;;10.10;99.90;;;;;;8366648;28;19925;-71
2021/11/04 11:55:59;;;;;;;;;;;10.10;99.90;;;;;;8359890;28;19975;-71
2021/11/04 12:00:00;;;;;;;;;;;10.20;99.90;;;;;;8361803;28;19921;-72
2021/11/04 12:04:02;;;;;;;;;;;10.30;99.90;;;;;;8356459;28;20387;-71
2021/11/04 12:08:13;;;;;;;;;;;10.40;99.90;;;;;;8378464;28;20015;-72
2021/11/04 12:12:33;;;;;;;;;;;10.40;99.90;;;;;;8355197;28;19927;-70
2021/11/04 12:16:35;;;;;;;;;;;10.50;99.90;;;;;;8354260;28;19953;-71
2021/11/04 12:20:46;;;;;;;;;;;10.60;99.90;;;;;;8354670;28;20266;-71
2021/11/04 12:24:48;;;;;;;;;;;10.70;99.90;;;;;;8356013;28;19928;-70
2021/11/04 12:28:50;;;;;;;;;;;10.70;99.90;;;;;;8359918;28;19931;-71
2021/11/04 12:33:09;;;;;;;;;;;10.70;99.90;;;;;;8353218;28;19920;-71
2021/11/04 12:37:12;;;;;;;;;;;10.70;99.90;;;;;;8374563;28;19932;-72
2021/11/04 12:41:15;;;;;;;;;;;10.80;99.90;;;;;;8352971;28;20264;-72
2021/11/04 12:45:23;;;;;;;;;;;10.80;99.90;;;;;;8359613;28;19974;-71
2021/11/04 12:49:27;;;;;;;;;;;10.90;99.90;;;;;;8354237;28;20360;-71
2021/11/04 12:53:47;;;;;;;;;;;11.10;99.90;;;;;;8362177;28;19921;-71
2021/11/04 12:58:08;;;;;;;;;;;11.20;99.90;;;;;;8351280;28;19920;-72
2021/11/04 13:02:23;;;;;;;;;;;11.30;99.90;;;;;;8359718;28;19925;-72
2021/11/04 13:06:30;;;;;;;;;;;11.30;99.90;;;;;;8370303;28;19924;-71
2021/11/04 13:10:32;;;;;;;;;;;11.20;99.90;;;;;;8367053;28;19963;-71
2021/11/04 13:14:47;;;;;;;;;;;11.20;99.90;;;;;;8367416;28;19927;-72
2021/11/04 13:18:48;;;;;;;;;;;11.20;99.90;;;;;;8372442;28;19921;-72
2021/11/04 13:22:58;;;;;;;;;;;11.20;99.90;;;;;;8353482;28;20583;-72
2021/11/04 13:27:00;;;;;;;;;;;11.20;99.90;;;;;;8360431;28;19925;-72
2021/11/04 13:31:09;;;;;;;;;;;11.10;99.90;;;;;;8357507;28;19931;-71
2021/11/04 13:35:32;;;;;;;;;;;11.00;99.90;;;;;;8356052;28;19921;-71
2021/11/04 13:39:33;;;;;;;;;;;11.00;99.90;;;;;;8356430;28;20421;-72
2021/11/04 13:43:39;;;;;;;;;;;11.20;99.90;;;;;;8360452;28;19920;-71
2021/11/04 13:47:43;;;;;;;;;;;11.40;99.90;;;;;;8355136;28;19933;-71
2021/11/04 13:51:53;;;;;;;;;;;11.70;99.90;;;;;;8363078;28;19928;-71
2021/11/04 13:56:08;;;;;;;;;;;11.80;99.90;;;;;;8350329;28;19928;-71
2021/11/04 14:00:18;;;;;;;;;;;11.90;99.90;;;;;;8363441;28;20007;-71
2021/11/04 14:04:20;;;;;;;;;;;11.80;99.90;;;;;;8357318;28;19920;-71
2021/11/04 14:08:35;;;;;;;;;;;12.00;99.90;;;;;;8351536;28;19925;-72
2021/11/04 14:12:38;;;;;;;;;;;12.10;99.90;;;;;;8350378;28;20297;-72
2021/11/04 14:16:40;;;;;;;;;;;12.20;99.90;;;;;;8353494;28;19929;-72
2021/11/04 14:20:42;;;;;;;7.90;5.60;;;12.70;99.90;;;;;;8348233;28;19921;-71
2021/11/04 14:24:44;;;;;;;;;;;13.50;99.90;;;;;;8361091;28;20400;-71
2021/11/04 14:28:47;;;;;;;;;;;14.20;99.90;;;;;;8385914;28;19920;-71
2021/11/04 14:32:49;;;;;;;;;;;14.70;99.90;;;;;;8355996;28;20368;-71
2021/11/04 14:36:51;;;;;;;;;;;14.80;99.90;;;;;;8359780;28;19920;-71
2021/11/04 14:40:52;;;;;;;;;;;14.70;99.90;;;;;;8352382;28;19925;-71
2021/11/04 14:44:54;;;;;;;;;;;14.50;99.90;;;;;;8390654;28;19928;-71
2021/11/04 14:48:56;;;;;;;;;;;14.30;99.90;;;;;;8358673;28;20201;-72
2021/11/04 14:52:58;;;;;;;;;;;14.20;99.90;;;;;;8351184;28;20380;-72
2021/11/04 14:57:00;;;;;;;;;;;14.10;99.90;;;;;;8356939;28;19921;-72
2021/11/04 15:01:02;;;;;;;;;;;14.10;99.90;;;;;;8352254;28;20392;-72
2021/11/04 15:05:04;;;;;;;;;;;14.10;99.90;;;;;;8357383;28;19928;-71
2021/11/04 15:09:06;;;;;;;;;;;13.90;99.90;;;;;;8373277;28;20257;-71
2021/11/04 15:13:08;;;;;;;;;;;13.80;99.90;;;;;;8345143;28;20046;-72
2021/11/04 15:17:10;;;;;;;;;;;13.80;99.90;;;;;;8353721;28;19927;-72
2021/11/04 15:21:12;;;;;;;;;;;13.70;99.90;;;;;;8357853;28;19925;-71
2021/11/04 15:25:13;;;;;;;;;;;13.60;99.90;;;;;;8354736;28;19921;-71
2021/11/04 15:29:16;;;;;;;;;;;13.30;99.90;;;;;;8337912;28;19928;-72
2021/11/04 15:33:17;;;;;;;;;;;12.90;99.90;;;;;;8327398;28;20292;-72
2021/11/04 15:37:19;;;;;;;;;;;12.60;99.90;;;;;;8323353;28;19921;-72
2021/11/04 15:41:21;;;;;;;;;;;12.30;99.90;;;;;;8322960;28;19921;-71
2021/11/04 15:45:22;;;;;;;;;;;12.10;99.90;;;;;;8337117;28;19929;-72
2021/11/04 15:49:24;;;;;;;;;;;11.90;99.90;;;;;;8321057;28;19945;-72
2021/11/04 15:53:26;;;;;;;;;;;11.70;99.90;;;;;;8337612;28;19926;-72
2021/11/04 15:57:29;;;;;;;;;;;11.50;99.90;;;;;;8322646;28;19944;-71
2021/11/04 16:01:31;;;;;;;;;;;11.30;99.90;;;;;;8320048;28;20384;-72
2021/11/04 16:05:32;;;;;;;;;;;11.20;99.90;;;;;;8327336;28;19940;-71
2021/11/04 16:09:34;;;;;;;;;;;11.10;99.90;;;;;;8323206;28;19929;-72
2021/11/04 16:13:36;;;;;;;;;;;11.00;99.90;;;;;;8316962;28;19935;-71
2021/11/04 16:17:37;;;;;;;;;;;10.90;99.90;;;;;;8326398;28;19924;-71
2021/11/04 16:21:39;;;;;;;;;;;10.80;99.90;;;;;;8319627;28;19924;-71
2021/11/04 16:25:41;;;;;;;;;;;10.70;99.90;;;;;;8335276;28;20253;-71
2021/11/04 16:29:43;;;;;;;;;;;10.60;99.90;;;;;;8312183;28;20383;-72
2021/11/04 16:33:45;;;;;;;;;;;10.40;99.90;;;;;;8346117;28;20002;-72
2021/11/04 16:37:48;;;;;;;;;;;10.30;99.90;;;;;;8335603;28;20337;-72
2021/11/04 16:41:50;;;;;;;;;;;10.20;99.90;;;;;;8317622;28;20281;-72
2021/11/04 16:45:52;;;;;;;;;;;10.10;99.90;;;;;;8327703;28;20014;-72
2021/11/04 16:49:54;;;;;;;;;;;10.00;99.90;;;;;;8325876;28;19929;-72
2021/11/04 16:53:58;;;;;;;5.40;3.45;;;9.90;99.90;;;;;;8335634;28;19936;-72
2021/11/04 16:57:59;;;;;;;6.13;3.90;;;9.80;99.90;;;;;;8322152;28;20041;-72
2021/11/04 17:02:01;;;;;;;5.80;3.65;;;9.80;99.90;;;;;;8334621;28;20068;-71
2021/11/04 17:06:04;;;;;;;6.60;3.85;;;9.70;99.90;;;;;;8321812;28;20103;-72
2021/11/04 17:10:06;;;;;;;5.90;3.50;;;9.60;99.90;;;;;;8322523;28;20048;-72
2021/11/04 17:14:08;;;;;;;;;;;9.50;99.90;;;;;;8320016;28;19933;-72
2021/11/04 17:18:09;;;;;;;;;;;9.40;99.90;;;;;;8338735;28;20064;-71
2021/11/04 17:22:11;;;;;;;;;;;9.30;99.90;;;;;;8323974;28;19925;-72
2021/11/04 17:26:13;;;;;;;;;;;9.30;99.90;;;;;;8325789;28;19933;-71
2021/11/04 17:30:16;;;;;;;;;;;9.20;99.90;;;;;;8320157;28;20202;-71
2021/11/04 17:34:17;;;;;;;;;;;9.10;99.90;;;;;;8323115;28;19931;-72
2021/11/04 17:38:20;;;;;;;;;;;9.10;99.90;;;;;;8325269;28;19971;-72
2021/11/04 17:42:25;;;;;;;;;;;9.00;99.90;;;;;;8323110;28;19933;-71
2021/11/04 17:46:27;;;;;;;;;;;9.00;99.90;;;;;;8332107;28;20246;-72
2021/11/04 17:50:30;;;;;;;;;;;8.90;99.90;;;;;;8334482;28;19932;-72
2021/11/04 17:54:34;;;;;;;;;;;8.90;99.90;;;;;;8338353;28;19929;-71
2021/11/04 17:58:35;;;;;;;;;;;8.90;99.90;;;;;;8329094;28;20374;-72
2021/11/04 18:02:37;;;;;;;;;;;8.90;99.90;;;;;;8326736;28;20494;-72
2021/11/04 18:06:41;;;;;;;;;;;8.90;99.90;;;;;;8329925;28;20947;-71
2021/11/04 18:10:43;;;;;;;;;;;8.90;99.90;;;;;;8335796;28;19924;-72
2021/11/04 18:14:46;;;;;;;;;;;8.90;99.90;;;;;;8326704;28;19928;-72
2021/11/04 18:18:48;;;;;;;;;;;8.90;99.90;;;;;;8353280;28;19924;-71
2021/11/04 18:22:49;;;;;;;;;;;8.80;99.90;;;;;;8343748;28;19925;-72
2021/11/04 18:26:51;;;;;;;;;;;8.80;99.90;;;;;;8328954;28;19920;-72
2021/11/04 18:30:53;;;;;;;;;;;8.70;99.90;;;;;;8322849;28;19933;-71
2021/11/04 18:34:55;;;;;;;;;;;8.70;99.90;;;;;;8325947;28;19925;-71
2021/11/04 18:38:57;;;;;;;;;;;8.60;99.90;;;;;;8324661;28;19925;-72
2021/11/04 18:42:59;;;;;;;;;;;8.50;99.90;;;;;;8322675;28;19942;-71
2021/11/04 18:47:01;;;;;;;;;;;8.50;99.90;;;;;;8355243;28;20443;-71
2021/11/04 18:51:03;;;;;;;;;;;8.40;99.90;;;;;;8325016;28;19944;-72
2021/11/04 18:55:04;;;;;;;;;;;8.40;99.90;;;;;;8338939;28;19940;-72
2021/11/04 18:59:06;;;;;;;;;;;8.40;99.90;;;;;;8339557;28;19939;-71
2021/11/04 19:03:08;;;;;;;;;;;8.40;99.90;;;;;;8323897;28;20300;-71
2021/11/04 19:07:09;;;;;;;;;;;8.40;99.90;;;;;;8324651;28;20352;-72
2021/11/04 19:11:11;;;;;;;;;;;8.40;99.90;;;;;;8340403;28;19925;-71
2021/11/04 19:15:14;;;;;;;;;;;8.40;99.90;;;;;;8320341;28;20006;-71
2021/11/04 19:19:16;;;;;;;;;;;8.30;99.90;;;;;;8327574;28;19924;-71
2021/11/04 19:23:17;;;;;;;;;;;8.20;99.90;;;;;;8334567;28;19925;-71
2021/11/04 19:27:23;;;;;;;;;;;8.20;99.90;;;;;;8325306;28;19925;-71
2021/11/04 19:31:25;;;;;;;;;;;8.10;99.90;;;;;;8325580;28;19936;-71
2021/11/04 19:35:26;;;;;;;;;;;8.00;99.90;;;;;;8337194;28;19936;-72
2021/11/04 19:39:28;;;;;;;;;;;8.00;99.90;;;;;;8344588;28;19936;-71
2021/11/04 19:43:30;;;;;;;;;;;7.90;99.90;;;;;;8346859;28;19936;-72
2021/11/04 19:47:32;;;;;;;;;;;7.70;99.90;;;;;;8335666;28;19921;-72
2021/11/04 19:51:33;;;;;;;;;;;7.70;99.90;;;;;;8350353;28;19929;-72
2021/11/04 19:55:35;;;;;;;;;;;7.60;99.90;;;;;;8342879;28;19920;-72
2021/11/04 19:59:38;;;;;;;;;;;7.50;99.90;;;;;;8347978;28;19921;-71
2021/11/04 20:03:40;;;;;;;;;;;7.40;99.90;;;;;;8347248;28;20296;-72
2021/11/04 20:07:42;;;;;;;;;;;7.40;99.90;;;;;;8379990;28;19921;-71
2021/11/04 20:11:44;;;;;;;;;;;7.30;99.90;;;;;;8348111;28;19929;-72
2021/11/04 20:15:46;;;;;;;;;;;7.30;99.90;;;;;;8346647;28;19925;-71
2021/11/04 20:19:47;;;;;;;;;;;7.30;99.90;;;;;;8347556;28;19924;-72
2021/11/04 20:23:49;;;;;;;;;;;7.20;99.90;;;;;;8347201;28;19927;-71
2021/11/04 20:27:51;;;;;;;;;;;7.20;99.90;;;;;;8349598;28;19920;-72
2021/11/04 20:31:53;;;;;;;;;;;7.20;99.90;;;;;;8380505;28;19928;-71
2021/11/04 20:35:54;;;;;;;;;;;7.10;99.90;;;;;;8347051;28;19976;-71
2021/11/04 20:39:56;;;;;;;;;;;7.00;99.90;;;;;;8344824;28;19925;-71
2021/11/04 20:44:00;;;;;;;;;;;7.00;99.90;;;;;;8350388;28;19920;-72
2021/11/04 20:48:02;;;;;;;;;;;7.00;99.90;;;;;;8346839;28;20367;-71
2021/11/04 20:52:03;;;;;;;;;;;6.90;99.90;;;;;;8347850;28;20281;-72
2021/11/04 20:56:05;;;;;;;;;;;7.00;99.90;;;;;;8346876;28;19951;-71
2021/11/04 21:00:08;;;;;;;;;;;6.90;99.90;;;;;;8339592;28;20360;-72
2021/11/04 21:04:11;;;;;;;;;;;6.90;99.90;;;;;;8345817;28;19920;-71
2021/11/04 21:08:13;;;;;;;;;;;6.90;99.90;;;;;;8349344;28;20442;-72
2021/11/04 21:12:15;;;;;;;;;;;6.80;99.90;;;;;;8345066;28;19924;-72
2021/11/04 21:16:16;;;;;;;;;;;6.80;99.90;;;;;;8349822;28;19921;-71
2021/11/04 21:20:19;;;;;;;;;;;6.80;99.90;;;;;;8343753;28;19924;-72
2021/11/04 21:24:21;;;;;;;;;;;6.70;99.90;;;;;;8351605;28;20477;-72
2021/11/04 21:28:23;;;;;;;;;;;6.80;99.90;;;;;;8353086;28;19925;-72
2021/11/04 21:32:25;;;;;;;;;;;6.80;99.90;;;;;;8351150;28;19929;-71
2021/11/04 21:36:30;;;;;;;;;;;6.80;99.90;;;;;;8352447;28;19932;-72
2021/11/04 21:40:32;;;;;;;;;;;6.90;99.90;;;;;;8352251;28;19921;-72
2021/11/04 21:44:34;;;;;;;;;;;6.90;99.90;;;;;;8354034;28;19925;-72
2021/11/04 21:48:37;;;;;;;;;;;7.00;99.90;;;;;;8356852;28;19928;-72
2021/11/04 21:52:39;;;;;;;;;;;6.90;99.90;;;;;;8351118;28;19921;-72
2021/11/04 21:56:40;;;;;;;;;;;6.80;99.90;;;;;;8356074;28;20276;-72
2021/11/04 22:00:43;;;;;;;;;;;6.70;99.90;;;;;;8385148;28;19933;-71
2021/11/04 22:04:45;;;;;;;;;;;6.70;99.90;;;;;;8359750;28;19964;-71
2021/11/04 22:08:51;;;;;;;;;;;6.70;99.90;;;;;;8369600;28;20229;-71
2021/11/04 22:12:53;;;;;;;;;;;6.60;99.90;;;;;;8365733;28;19924;-71
2021/11/04 22:16:55;;;;;;;;;;;6.60;99.90;;;;;;8346920;28;19928;-72
2021/11/04 22:20:56;;;;;;;;;;;6.50;99.90;;;;;;8350709;28;20010;-71
2021/11/04 22:24:58;;;;;;;;;;;6.50;99.90;;;;;;8395552;28;19947;-72
2021/11/04 22:29:01;;;;;;;;;;;6.50;99.90;;;;;;8355040;28;20387;-71
2021/11/04 22:33:03;;;;;;;;;;;6.40;99.90;;;;;;8365876;28;19924;-72
2021/11/04 22:37:05;;;;;;;;;;;6.40;99.90;;;;;;8365153;28;19933;-71
2021/11/04 22:41:06;;;;;;;;;;;6.30;99.90;;;;;;8367926;28;19920;-72
2021/11/04 22:45:10;;;;;;;;;;;6.20;99.90;;;;;;8362568;28;19920;-71
2021/11/04 22:49:12;;;;;;;;;;;6.20;99.90;;;;;;8360356;28;19920;-72
2021/11/04 22:53:14;;;;;;;;;;;6.10;99.90;;;;;;8370561;28;19927;-72
2021/11/04 22:57:16;;;;;;;;;;;6.10;99.90;;;;;;8365828;28;19974;-71
2021/11/04 23:01:17;;;;;;;;;;;6.10;99.90;;;;;;8353009;28;19955;-72
2021/11/04 23:05:19;;;;;;;;;;;6.00;99.90;;;;;;8362386;28;20292;-72
2021/11/04 23:09:22;;;;;;;;;;;5.90;99.90;;;;;;8365463;28;20057;-71
2021/11/04 23:13:26;;;;;;;;;;;5.90;99.90;;;;;;8346107;28;19921;-72
2021/11/04 23:17:28;;;;;;;;;;;5.90;99.90;;;;;;8396758;28;19921;-72
2021/11/04 23:21:30;;;;;;;;;;;5.90;99.90;;;;;;8356762;28;19950;-71
2021/11/04 23:25:32;;;;;;;;;;;5.90;99.90;;;;;;8362218;28;20445;-72
2021/11/04 23:29:34;;;;;;;;;;;5.80;99.90;;;;;;8358194;28;19990;-71
2021/11/04 23:33:38;;;;;;;;;;;5.80;99.90;;;;;;8375736;28;19925;-71
2021/11/04 23:37:40;;;;;;;;;;;5.80;99.90;;;;;;8356137;28;19921;-71
2021/11/04 23:41:41;;;;;;;;;;;5.80;99.90;;;;;;8365023;28;19925;-72
2021/11/04 23:45:43;;;;;;;;;;;5.80;99.90;;;;;;8352247;28;20291;-71
2021/11/04 23:49:45;;;;;;;;;;;5.70;99.90;;;;;;8346787;28;20308;-72